sensor_id;sensor_type;location;lat;lon;timestamp;P1;durP1;ratioP1;P2;durP2;ratioP2
679;SDS011;322;48.846;9.230;2023-04-24T00:01:46;2.47;;;1.10;;
679;SDS011;322;48.846;9.230;2023-04-24T00:04:14;0.97;;;0.80;;
679;SDS011;322;48.846;9.230;2023-04-24T00:06:42;1.00;;;0.87;;
679;SDS011;322;48.846;9.230;2023-04-24T00:09:09;2.33;;;0.87;;
679;SDS011;322;48.846;9.230;2023-04-24T00:11:36;1.57;;;0.90;;
679;SDS011;322;48.846;9.230;2023-04-24T00:14:03;1.00;;;0.87;;
679;SDS011;322;48.846;9.230;2023-04-24T00:16:30;1.30;;;1.20;;
679;SDS011;322;48.846;9.230;2023-04-24T00:18:57;1.00;;;0.80;;
679;SDS011;322;48.846;9.230;2023-04-24T00:21:27;1.57;;;0.73;;
679;SDS011;322;48.846;9.230;2023-04-24T00:23:55;3.80;;;0.90;;
679;SDS011;322;48.846;9.230;2023-04-24T00:26:21;2.40;;;1.00;;
679;SDS011;322;48.846;9.230;2023-04-24T00:28:48;1.40;;;1.07;;
679;SDS011;322;48.846;9.230;2023-04-24T00:31:15;3.23;;;1.90;;
679;SDS011;322;48.846;9.230;2023-04-24T00:33:42;1.53;;;0.80;;
679;SDS011;322;48.846;9.230;2023-04-24T00:36:08;0.90;;;0.77;;
679;SDS011;322;48.846;9.230;2023-04-24T00:38:37;1.03;;;0.87;;
679;SDS011;322;48.846;9.230;2023-04-24T00:41:03;1.30;;;0.70;;
679;SDS011;322;48.846;9.230;2023-04-24T00:43:30;1.10;;;0.63;;
679;SDS011;322;48.846;9.230;2023-04-24T00:45:57;0.80;;;0.80;;
679;SDS011;322;48.846;9.230;2023-04-24T00:48:26;0.87;;;0.63;;
679;SDS011;322;48.846;9.230;2023-04-24T00:50:54;1.27;;;0.70;;
679;SDS011;322;48.846;9.230;2023-04-24T00:53:21;3.03;;;0.70;;
679;SDS011;322;48.846;9.230;2023-04-24T00:55:49;1.97;;;0.90;;
679;SDS011;322;48.846;9.230;2023-04-24T00:58:17;0.83;;;0.60;;
679;SDS011;322;48.846;9.230;2023-04-24T01:00:44;1.33;;;0.70;;
679;SDS011;322;48.846;9.230;2023-04-24T01:03:12;1.80;;;0.77;;
679;SDS011;322;48.846;9.230;2023-04-24T01:05:39;1.10;;;1.00;;
679;SDS011;322;48.846;9.230;2023-04-24T01:08:06;1.13;;;0.50;;
679;SDS011;322;48.846;9.230;2023-04-24T01:10:33;1.53;;;0.60;;
679;SDS011;322;48.846;9.230;2023-04-24T01:13:03;1.73;;;0.70;;
679;SDS011;322;48.846;9.230;2023-04-24T01:15:30;1.10;;;0.70;;
679;SDS011;322;48.846;9.230;2023-04-24T01:17:57;1.43;;;1.07;;
679;SDS011;322;48.846;9.230;2023-04-24T01:20:24;2.10;;;0.83;;
679;SDS011;322;48.846;9.230;2023-04-24T01:22:53;2.70;;;1.00;;
679;SDS011;322;48.846;9.230;2023-04-24T01:25:21;1.83;;;0.80;;
679;SDS011;322;48.846;9.230;2023-04-24T01:27:48;2.67;;;1.07;;
679;SDS011;322;48.846;9.230;2023-04-24T01:30:16;0.60;;;0.50;;
679;SDS011;322;48.846;9.230;2023-04-24T01:32:43;3.63;;;0.70;;
679;SDS011;322;48.846;9.230;2023-04-24T01:35:11;1.23;;;0.60;;
679;SDS011;322;48.846;9.230;2023-04-24T01:37:38;1.20;;;1.10;;
679;SDS011;322;48.846;9.230;2023-04-24T01:40:07;1.17;;;0.87;;
679;SDS011;322;48.846;9.230;2023-04-24T01:42:34;1.23;;;0.73;;
679;SDS011;322;48.846;9.230;2023-04-24T01:45:02;1.97;;;0.97;;
679;SDS011;322;48.846;9.230;2023-04-24T01:47:30;1.10;;;0.80;;
679;SDS011;322;48.846;9.230;2023-04-24T01:49:57;1.37;;;0.70;;
679;SDS011;322;48.846;9.230;2023-04-24T01:52:24;1.10;;;0.70;;
679;SDS011;322;48.846;9.230;2023-04-24T01:54:52;2.00;;;0.63;;
679;SDS011;322;48.846;9.230;2023-04-24T01:57:22;1.30;;;0.80;;
679;SDS011;322;48.846;9.230;2023-04-24T01:59:49;2.47;;;0.83;;
679;SDS011;322;48.846;9.230;2023-04-24T02:02:16;3.33;;;1.40;;
679;SDS011;322;48.846;9.230;2023-04-24T02:04:43;1.00;;;0.70;;
679;SDS011;322;48.846;9.230;2023-04-24T02:07:10;1.77;;;0.80;;
679;SDS011;322;48.846;9.230;2023-04-24T02:09:37;1.90;;;0.90;;
679;SDS011;322;48.846;9.230;2023-04-24T02:12:04;1.67;;;0.87;;
679;SDS011;322;48.846;9.230;2023-04-24T02:14:32;2.30;;;1.40;;
679;SDS011;322;48.846;9.230;2023-04-24T02:16:59;2.60;;;0.73;;
679;SDS011;322;48.846;9.230;2023-04-24T02:19:26;1.77;;;0.90;;
679;SDS011;322;48.846;9.230;2023-04-24T02:21:52;3.10;;;0.80;;
679;SDS011;322;48.846;9.230;2023-04-24T02:24:19;1.03;;;0.70;;
679;SDS011;322;48.846;9.230;2023-04-24T02:26:46;1.87;;;0.73;;
679;SDS011;322;48.846;9.230;2023-04-24T02:29:13;1.07;;;0.70;;
679;SDS011;322;48.846;9.230;2023-04-24T02:31:42;2.07;;;1.10;;
679;SDS011;322;48.846;9.230;2023-04-24T02:34:08;1.00;;;0.87;;
679;SDS011;322;48.846;9.230;2023-04-24T02:36:35;2.20;;;0.97;;
679;SDS011;322;48.846;9.230;2023-04-24T02:39:02;1.43;;;0.63;;
679;SDS011;322;48.846;9.230;2023-04-24T02:41:29;1.53;;;0.80;;
679;SDS011;322;48.846;9.230;2023-04-24T02:43:57;2.83;;;0.87;;
679;SDS011;322;48.846;9.230;2023-04-24T02:46:24;1.70;;;0.90;;
679;SDS011;322;48.846;9.230;2023-04-24T02:48:53;1.60;;;0.90;;
679;SDS011;322;48.846;9.230;2023-04-24T02:51:19;1.57;;;0.60;;
679;SDS011;322;48.846;9.230;2023-04-24T02:53:46;2.90;;;1.13;;
679;SDS011;322;48.846;9.230;2023-04-24T02:56:13;1.50;;;0.90;;
679;SDS011;322;48.846;9.230;2023-04-24T02:58:40;0.90;;;0.73;;
679;SDS011;322;48.846;9.230;2023-04-24T03:01:07;0.87;;;0.73;;
679;SDS011;322;48.846;9.230;2023-04-24T03:03:34;3.30;;;1.10;;
679;SDS011;322;48.846;9.230;2023-04-24T03:06:03;1.80;;;0.70;;
679;SDS011;322;48.846;9.230;2023-04-24T03:08:30;1.07;;;0.97;;
679;SDS011;322;48.846;9.230;2023-04-24T03:10:57;1.67;;;1.10;;
679;SDS011;322;48.846;9.230;2023-04-24T03:13:24;1.23;;;0.90;;
679;SDS011;322;48.846;9.230;2023-04-24T03:15:51;2.13;;;1.13;;
679;SDS011;322;48.846;9.230;2023-04-24T03:18:18;2.10;;;1.17;;
679;SDS011;322;48.846;9.230;2023-04-24T03:20:45;2.10;;;1.03;;
679;SDS011;322;48.846;9.230;2023-04-24T03:23:13;1.00;;;0.77;;
679;SDS011;322;48.846;9.230;2023-04-24T03:25:40;1.60;;;0.87;;
679;SDS011;322;48.846;9.230;2023-04-24T03:28:07;2.43;;;1.17;;
679;SDS011;322;48.846;9.230;2023-04-24T03:30:34;0.87;;;0.70;;
679;SDS011;322;48.846;9.230;2023-04-24T03:33:01;1.73;;;1.00;;
679;SDS011;322;48.846;9.230;2023-04-24T03:35:28;1.47;;;0.90;;
679;SDS011;322;48.846;9.230;2023-04-24T03:37:55;4.70;;;1.10;;
679;SDS011;322;48.846;9.230;2023-04-24T03:40:23;2.30;;;1.30;;
679;SDS011;322;48.846;9.230;2023-04-24T03:42:50;2.43;;;1.03;;
679;SDS011;322;48.846;9.230;2023-04-24T03:45:17;1.43;;;1.20;;
679;SDS011;322;48.846;9.230;2023-04-24T03:47:43;1.53;;;0.87;;
679;SDS011;322;48.846;9.230;2023-04-24T03:50:10;2.30;;;1.13;;
679;SDS011;322;48.846;9.230;2023-04-24T03:52:37;2.13;;;1.30;;
679;SDS011;322;48.846;9.230;2023-04-24T03:55:04;1.10;;;0.93;;
679;SDS011;322;48.846;9.230;2023-04-24T03:57:33;2.13;;;1.10;;
679;SDS011;322;48.846;9.230;2023-04-24T03:59:59;1.90;;;0.70;;
679;SDS011;322;48.846;9.230;2023-04-24T04:02:26;1.23;;;1.00;;
679;SDS011;322;48.846;9.230;2023-04-24T04:04:53;1.57;;;1.47;;
679;SDS011;322;48.846;9.230;2023-04-24T04:07:20;0.90;;;0.73;;
679;SDS011;322;48.846;9.230;2023-04-24T04:09:47;2.80;;;1.30;;
679;SDS011;322;48.846;9.230;2023-04-24T04:12:13;3.23;;;1.00;;
679;SDS011;322;48.846;9.230;2023-04-24T04:14:42;3.63;;;1.20;;
679;SDS011;322;48.846;9.230;2023-04-24T04:17:08;3.70;;;1.30;;
679;SDS011;322;48.846;9.230;2023-04-24T04:19:35;1.60;;;1.10;;
679;SDS011;322;48.846;9.230;2023-04-24T04:22:02;1.33;;;0.93;;
679;SDS011;322;48.846;9.230;2023-04-24T04:24:29;2.60;;;1.17;;
679;SDS011;322;48.846;9.230;2023-04-24T04:26:55;1.20;;;1.00;;
679;SDS011;322;48.846;9.230;2023-04-24T04:29:23;3.57;;;1.00;;
679;SDS011;322;48.846;9.230;2023-04-24T04:31:52;2.17;;;0.93;;
679;SDS011;322;48.846;9.230;2023-04-24T04:34:20;1.67;;;1.10;;
679;SDS011;322;48.846;9.230;2023-04-24T04:36:47;0.90;;;0.80;;
679;SDS011;322;48.846;9.230;2023-04-24T04:39:15;1.47;;;1.30;;
679;SDS011;322;48.846;9.230;2023-04-24T04:41:43;1.50;;;0.83;;
679;SDS011;322;48.846;9.230;2023-04-24T04:44:11;1.03;;;0.87;;
679;SDS011;322;48.846;9.230;2023-04-24T04:46:39;1.30;;;1.20;;
679;SDS011;322;48.846;9.230;2023-04-24T04:49:08;1.00;;;0.80;;
679;SDS011;322;48.846;9.230;2023-04-24T04:51:35;1.93;;;1.57;;
679;SDS011;322;48.846;9.230;2023-04-24T04:54:02;2.40;;;1.40;;
679;SDS011;322;48.846;9.230;2023-04-24T04:56:29;2.10;;;1.00;;
679;SDS011;322;48.846;9.230;2023-04-24T04:58:56;2.93;;;1.30;;
679;SDS011;322;48.846;9.230;2023-04-24T05:01:24;3.63;;;1.43;;
679;SDS011;322;48.846;9.230;2023-04-24T05:03:52;1.70;;;1.17;;
679;SDS011;322;48.846;9.230;2023-04-24T05:06:20;1.73;;;1.57;;
679;SDS011;322;48.846;9.230;2023-04-24T05:08:47;1.37;;;1.23;;
679;SDS011;322;48.846;9.230;2023-04-24T05:11:14;4.20;;;1.93;;
679;SDS011;322;48.846;9.230;2023-04-24T05:13:41;1.67;;;1.30;;
679;SDS011;322;48.846;9.230;2023-04-24T05:16:08;1.90;;;1.40;;
679;SDS011;322;48.846;9.230;2023-04-24T05:18:35;1.67;;;1.33;;
679;SDS011;322;48.846;9.230;2023-04-24T05:21:01;2.97;;;1.30;;
679;SDS011;322;48.846;9.230;2023-04-24T05:23:30;1.20;;;1.10;;
679;SDS011;322;48.846;9.230;2023-04-24T05:25:56;1.23;;;1.13;;
679;SDS011;322;48.846;9.230;2023-04-24T05:28:23;2.60;;;1.00;;
679;SDS011;322;48.846;9.230;2023-04-24T05:30:53;2.90;;;1.80;;
679;SDS011;322;48.846;9.230;2023-04-24T05:33:20;2.20;;;1.10;;
679;SDS011;322;48.846;9.230;2023-04-24T05:35:47;2.80;;;1.97;;
679;SDS011;322;48.846;9.230;2023-04-24T05:38:14;2.67;;;1.50;;
679;SDS011;322;48.846;9.230;2023-04-24T05:40:44;2.80;;;1.60;;
679;SDS011;322;48.846;9.230;2023-04-24T05:43:11;1.43;;;1.33;;
679;SDS011;322;48.846;9.230;2023-04-24T05:45:38;1.30;;;1.20;;
679;SDS011;322;48.846;9.230;2023-04-24T05:48:05;1.33;;;1.23;;
679;SDS011;322;48.846;9.230;2023-04-24T05:50:32;2.40;;;1.47;;
679;SDS011;322;48.846;9.230;2023-04-24T05:52:58;1.83;;;1.50;;
679;SDS011;322;48.846;9.230;2023-04-24T05:55:27;2.03;;;1.43;;
679;SDS011;322;48.846;9.230;2023-04-24T05:57:55;2.03;;;1.50;;
679;SDS011;322;48.846;9.230;2023-04-24T06:00:22;1.60;;;1.50;;
679;SDS011;322;48.846;9.230;2023-04-24T06:02:49;2.00;;;1.80;;
679;SDS011;322;48.846;9.230;2023-04-24T06:05:16;2.00;;;1.23;;
679;SDS011;322;48.846;9.230;2023-04-24T06:07:43;2.73;;;1.63;;
679;SDS011;322;48.846;9.230;2023-04-24T06:10:10;2.00;;;1.30;;
679;SDS011;322;48.846;9.230;2023-04-24T06:12:37;1.53;;;1.43;;
679;SDS011;322;48.846;9.230;2023-04-24T06:15:06;3.60;;;1.33;;
679;SDS011;322;48.846;9.230;2023-04-24T06:17:34;1.70;;;1.60;;
679;SDS011;322;48.846;9.230;2023-04-24T06:20:00;1.77;;;1.67;;
679;SDS011;322;48.846;9.230;2023-04-24T06:22:29;1.83;;;1.23;;
679;SDS011;322;48.846;9.230;2023-04-24T06:24:56;1.70;;;1.30;;
679;SDS011;322;48.846;9.230;2023-04-24T06:27:23;2.63;;;1.10;;
679;SDS011;322;48.846;9.230;2023-04-24T06:29:50;1.40;;;1.30;;
679;SDS011;322;48.846;9.230;2023-04-24T06:32:20;1.73;;;1.63;;
679;SDS011;322;48.846;9.230;2023-04-24T06:34:48;2.20;;;1.83;;
679;SDS011;322;48.846;9.230;2023-04-24T06:37:14;1.23;;;1.13;;
679;SDS011;322;48.846;9.230;2023-04-24T06:39:42;1.70;;;1.60;;
679;SDS011;322;48.846;9.230;2023-04-24T06:42:09;1.70;;;1.37;;
679;SDS011;322;48.846;9.230;2023-04-24T06:44:36;1.80;;;1.20;;
679;SDS011;322;48.846;9.230;2023-04-24T06:47:05;1.50;;;1.30;;
679;SDS011;322;48.846;9.230;2023-04-24T06:49:34;2.23;;;1.53;;
679;SDS011;322;48.846;9.230;2023-04-24T06:52:01;1.50;;;1.40;;
679;SDS011;322;48.846;9.230;2023-04-24T06:54:28;1.77;;;1.67;;
679;SDS011;322;48.846;9.230;2023-04-24T06:56:55;2.20;;;1.73;;
679;SDS011;322;48.846;9.230;2023-04-24T06:59:22;1.80;;;1.70;;
679;SDS011;322;48.846;9.230;2023-04-24T07:01:49;1.70;;;1.60;;
679;SDS011;322;48.846;9.230;2023-04-24T07:04:16;1.77;;;1.67;;
679;SDS011;322;48.846;9.230;2023-04-24T07:06:45;2.63;;;1.40;;
679;SDS011;322;48.846;9.230;2023-04-24T07:09:12;2.13;;;1.70;;
679;SDS011;322;48.846;9.230;2023-04-24T07:11:40;2.60;;;1.70;;
679;SDS011;322;48.846;9.230;2023-04-24T07:14:07;2.30;;;1.30;;
679;SDS011;322;48.846;9.230;2023-04-24T07:16:34;2.87;;;1.80;;
679;SDS011;322;48.846;9.230;2023-04-24T07:19:01;2.27;;;2.07;;
679;SDS011;322;48.846;9.230;2023-04-24T07:21:28;1.83;;;1.73;;
679;SDS011;322;48.846;9.230;2023-04-24T07:23:58;2.40;;;2.17;;
679;SDS011;322;48.846;9.230;2023-04-24T07:26:25;2.37;;;1.90;;
679;SDS011;322;48.846;9.230;2023-04-24T07:28:52;2.50;;;1.60;;
679;SDS011;322;48.846;9.230;2023-04-24T07:31:19;2.93;;;2.13;;
679;SDS011;322;48.846;9.230;2023-04-24T07:33:47;1.93;;;1.83;;
679;SDS011;322;48.846;9.230;2023-04-24T07:36:14;1.50;;;1.40;;
679;SDS011;322;48.846;9.230;2023-04-24T07:38:44;1.53;;;1.43;;
679;SDS011;322;48.846;9.230;2023-04-24T07:41:12;2.07;;;1.63;;
679;SDS011;322;48.846;9.230;2023-04-24T07:43:39;2.17;;;1.97;;
679;SDS011;322;48.846;9.230;2023-04-24T07:46:06;1.70;;;1.60;;
679;SDS011;322;48.846;9.230;2023-04-24T07:48:33;1.90;;;1.60;;
679;SDS011;322;48.846;9.230;2023-04-24T07:51:00;1.67;;;1.57;;
679;SDS011;322;48.846;9.230;2023-04-24T07:53:27;2.00;;;1.30;;
679;SDS011;322;48.846;9.230;2023-04-24T07:55:54;1.97;;;1.40;;
679;SDS011;322;48.846;9.230;2023-04-24T07:58:23;1.80;;;1.60;;
679;SDS011;322;48.846;9.230;2023-04-24T08:00:50;2.45;;;1.42;;
679;SDS011;322;48.846;9.230;2023-04-24T08:03:17;1.80;;;1.60;;
679;SDS011;322;48.846;9.230;2023-04-24T08:05:45;2.03;;;1.30;;
679;SDS011;322;48.846;9.230;2023-04-24T08:08:12;1.10;;;1.00;;
679;SDS011;322;48.846;9.230;2023-04-24T08:10:39;2.87;;;1.63;;
679;SDS011;322;48.846;9.230;2023-04-24T08:13:05;1.37;;;1.20;;
679;SDS011;322;48.846;9.230;2023-04-24T08:15:34;3.03;;;1.47;;
679;SDS011;322;48.846;9.230;2023-04-24T08:18:04;1.40;;;1.30;;
679;SDS011;322;48.846;9.230;2023-04-24T08:20:31;1.60;;;1.47;;
679;SDS011;322;48.846;9.230;2023-04-24T08:22:57;4.07;;;1.87;;
679;SDS011;322;48.846;9.230;2023-04-24T08:25:24;1.47;;;1.37;;
679;SDS011;322;48.846;9.230;2023-04-24T08:27:51;3.47;;;1.47;;
679;SDS011;322;48.846;9.230;2023-04-24T08:30:18;2.87;;;1.40;;
679;SDS011;322;48.846;9.230;2023-04-24T08:32:47;1.47;;;1.27;;
679;SDS011;322;48.846;9.230;2023-04-24T08:35:14;3.73;;;1.70;;
679;SDS011;322;48.846;9.230;2023-04-24T08:37:40;2.10;;;1.67;;
679;SDS011;322;48.846;9.230;2023-04-24T08:40:10;2.50;;;1.33;;
679;SDS011;322;48.846;9.230;2023-04-24T08:42:40;2.00;;;1.53;;
679;SDS011;322;48.846;9.230;2023-04-24T08:45:09;2.10;;;1.90;;
679;SDS011;322;48.846;9.230;2023-04-24T08:47:36;3.30;;;1.40;;
679;SDS011;322;48.846;9.230;2023-04-24T08:50:06;2.00;;;1.80;;
679;SDS011;322;48.846;9.230;2023-04-24T08:52:34;1.50;;;1.40;;
679;SDS011;322;48.846;9.230;2023-04-24T08:55:02;2.10;;;1.90;;
679;SDS011;322;48.846;9.230;2023-04-24T08:57:29;5.97;;;2.00;;
679;SDS011;322;48.846;9.230;2023-04-24T08:59:57;1.73;;;1.63;;
679;SDS011;322;48.846;9.230;2023-04-24T09:02:25;2.90;;;1.50;;
679;SDS011;322;48.846;9.230;2023-04-24T09:04:52;2.60;;;1.40;;
679;SDS011;322;48.846;9.230;2023-04-24T09:07:23;1.43;;;1.30;;
679;SDS011;322;48.846;9.230;2023-04-24T09:09:51;3.40;;;1.20;;
679;SDS011;322;48.846;9.230;2023-04-24T09:12:18;3.17;;;1.40;;
679;SDS011;322;48.846;9.230;2023-04-24T09:14:46;3.13;;;1.50;;
679;SDS011;322;48.846;9.230;2023-04-24T09:17:15;2.70;;;1.47;;
679;SDS011;322;48.846;9.230;2023-04-24T09:19:42;2.10;;;1.90;;
679;SDS011;322;48.846;9.230;2023-04-24T09:22:09;1.40;;;1.30;;
679;SDS011;322;48.846;9.230;2023-04-24T09:24:40;1.63;;;1.10;;
679;SDS011;322;48.846;9.230;2023-04-24T09:27:07;1.27;;;1.17;;
679;SDS011;322;48.846;9.230;2023-04-24T09:29:37;1.40;;;1.30;;
679;SDS011;322;48.846;9.230;2023-04-24T09:32:17;3.27;;;1.20;;
679;SDS011;322;48.846;9.230;2023-04-24T09:34:47;1.37;;;1.20;;
679;SDS011;322;48.846;9.230;2023-04-24T09:37:18;1.20;;;1.10;;
679;SDS011;322;48.846;9.230;2023-04-24T09:40:08;2.10;;;1.40;;
679;SDS011;322;48.846;9.230;2023-04-24T09:42:38;1.80;;;1.20;;
679;SDS011;322;48.846;9.230;2023-04-24T09:45:08;2.13;;;1.50;;
679;SDS011;322;48.846;9.230;2023-04-24T09:47:37;1.90;;;1.27;;
679;SDS011;322;48.846;9.230;2023-04-24T09:50:12;1.63;;;1.53;;
679;SDS011;322;48.846;9.230;2023-04-24T09:52:40;1.93;;;1.40;;
679;SDS011;322;48.846;9.230;2023-04-24T09:55:13;2.47;;;1.20;;
679;SDS011;322;48.846;9.230;2023-04-24T09:57:47;1.40;;;1.20;;
679;SDS011;322;48.846;9.230;2023-04-24T10:00:17;1.93;;;1.20;;
679;SDS011;322;48.846;9.230;2023-04-24T10:02:49;1.70;;;1.00;;
679;SDS011;322;48.846;9.230;2023-04-24T10:05:17;2.57;;;1.00;;
679;SDS011;322;48.846;9.230;2023-04-24T10:07:43;1.03;;;0.93;;
679;SDS011;322;48.846;9.230;2023-04-24T10:10:11;1.90;;;1.57;;
679;SDS011;322;48.846;9.230;2023-04-24T10:12:39;4.00;;;1.23;;
679;SDS011;322;48.846;9.230;2023-04-24T10:15:07;5.80;;;1.77;;
679;SDS011;322;48.846;9.230;2023-04-24T10:17:37;2.77;;;1.30;;
679;SDS011;322;48.846;9.230;2023-04-24T10:20:05;1.40;;;1.20;;
679;SDS011;322;48.846;9.230;2023-04-24T10:22:33;1.73;;;1.33;;
679;SDS011;322;48.846;9.230;2023-04-24T10:25:01;1.40;;;1.30;;
679;SDS011;322;48.846;9.230;2023-04-24T10:27:31;1.10;;;1.00;;
679;SDS011;322;48.846;9.230;2023-04-24T10:30:01;2.20;;;1.10;;
679;SDS011;322;48.846;9.230;2023-04-24T10:32:28;1.37;;;1.13;;
679;SDS011;322;48.846;9.230;2023-04-24T10:34:56;2.77;;;1.40;;
679;SDS011;322;48.846;9.230;2023-04-24T10:37:23;2.03;;;1.30;;
679;SDS011;322;48.846;9.230;2023-04-24T10:39:52;1.83;;;1.30;;
679;SDS011;322;48.846;9.230;2023-04-24T10:42:19;1.33;;;1.23;;
679;SDS011;322;48.846;9.230;2023-04-24T10:44:47;1.97;;;1.43;;
679;SDS011;322;48.846;9.230;2023-04-24T10:47:16;1.53;;;1.43;;
679;SDS011;322;48.846;9.230;2023-04-24T10:49:42;2.70;;;1.70;;
679;SDS011;322;48.846;9.230;2023-04-24T10:52:10;2.43;;;1.30;;
679;SDS011;322;48.846;9.230;2023-04-24T10:54:41;2.33;;;1.30;;
679;SDS011;322;48.846;9.230;2023-04-24T10:57:27;3.43;;;1.37;;
679;SDS011;322;48.846;9.230;2023-04-24T11:00:18;1.80;;;1.67;;
679;SDS011;322;48.846;9.230;2023-04-24T11:02:48;1.83;;;1.30;;
679;SDS011;322;48.846;9.230;2023-04-24T11:05:17;3.30;;;1.60;;
679;SDS011;322;48.846;9.230;2023-04-24T11:11:00;5.07;;;1.10;;
679;SDS011;322;48.846;9.230;2023-04-24T11:16:34;1.50;;;1.40;;
679;SDS011;322;48.846;9.230;2023-04-24T11:19:05;1.80;;;1.50;;
679;SDS011;322;48.846;9.230;2023-04-24T11:21:39;1.50;;;1.40;;
679;SDS011;322;48.846;9.230;2023-04-24T11:27:06;1.30;;;1.10;;
679;SDS011;322;48.846;9.230;2023-04-24T11:29:39;1.33;;;1.23;;
679;SDS011;322;48.846;9.230;2023-04-24T11:32:15;3.23;;;1.37;;
679;SDS011;322;48.846;9.230;2023-04-24T11:34:46;1.67;;;1.57;;
679;SDS011;322;48.846;9.230;2023-04-24T11:37:14;1.87;;;1.70;;
679;SDS011;322;48.846;9.230;2023-04-24T11:39:41;1.83;;;1.60;;
679;SDS011;322;48.846;9.230;2023-04-24T11:42:08;4.00;;;1.80;;
679;SDS011;322;48.846;9.230;2023-04-24T11:44:35;1.80;;;1.60;;
679;SDS011;322;48.846;9.230;2023-04-24T11:47:04;2.93;;;1.40;;
679;SDS011;322;48.846;9.230;2023-04-24T11:49:32;2.23;;;1.30;;
679;SDS011;322;48.846;9.230;2023-04-24T11:52:00;1.50;;;1.40;;
679;SDS011;322;48.846;9.230;2023-04-24T11:54:27;1.37;;;1.07;;
679;SDS011;322;48.846;9.230;2023-04-24T11:56:55;2.20;;;1.10;;
679;SDS011;322;48.846;9.230;2023-04-24T11:59:22;1.60;;;1.20;;
679;SDS011;322;48.846;9.230;2023-04-24T12:01:49;2.67;;;1.10;;
679;SDS011;322;48.846;9.230;2023-04-24T12:04:16;1.40;;;1.30;;
679;SDS011;322;48.846;9.230;2023-04-24T12:07:00;1.37;;;1.27;;
679;SDS011;322;48.846;9.230;2023-04-24T12:09:27;2.27;;;1.20;;
679;SDS011;322;48.846;9.230;2023-04-24T12:11:54;1.43;;;1.30;;
679;SDS011;322;48.846;9.230;2023-04-24T12:14:22;1.63;;;1.53;;
679;SDS011;322;48.846;9.230;2023-04-24T12:16:50;2.97;;;1.67;;
679;SDS011;322;48.846;9.230;2023-04-24T12:19:18;2.53;;;1.60;;
679;SDS011;322;48.846;9.230;2023-04-24T12:21:58;1.50;;;1.37;;
679;SDS011;322;48.846;9.230;2023-04-24T12:24:28;1.43;;;1.33;;
679;SDS011;322;48.846;9.230;2023-04-24T12:26:55;1.53;;;1.40;;
679;SDS011;322;48.846;9.230;2023-04-24T12:29:22;4.53;;;2.20;;
679;SDS011;322;48.846;9.230;2023-04-24T12:31:49;1.47;;;1.20;;
679;SDS011;322;48.846;9.230;2023-04-24T12:34:17;1.87;;;1.50;;
679;SDS011;322;48.846;9.230;2023-04-24T12:36:45;2.00;;;1.20;;
679;SDS011;322;48.846;9.230;2023-04-24T12:39:17;1.43;;;1.23;;
679;SDS011;322;48.846;9.230;2023-04-24T12:41:54;1.97;;;1.40;;
679;SDS011;322;48.846;9.230;2023-04-24T12:44:28;1.70;;;1.13;;
679;SDS011;322;48.846;9.230;2023-04-24T12:46:56;2.70;;;1.83;;
679;SDS011;322;48.846;9.230;2023-04-24T12:49:23;2.20;;;1.40;;
679;SDS011;322;48.846;9.230;2023-04-24T12:51:49;2.70;;;1.60;;
679;SDS011;322;48.846;9.230;2023-04-24T12:54:18;2.03;;;1.93;;
679;SDS011;322;48.846;9.230;2023-04-24T12:56:46;1.50;;;1.10;;
679;SDS011;322;48.846;9.230;2023-04-24T12:59:13;2.13;;;1.57;;
679;SDS011;322;48.846;9.230;2023-04-24T13:01:40;6.27;;;1.40;;
679;SDS011;322;48.846;9.230;2023-04-24T13:04:07;1.80;;;1.70;;
679;SDS011;322;48.846;9.230;2023-04-24T13:06:34;2.80;;;2.33;;
679;SDS011;322;48.846;9.230;2023-04-24T13:09:01;1.90;;;1.60;;
679;SDS011;322;48.846;9.230;2023-04-24T13:11:29;1.30;;;1.20;;
679;SDS011;322;48.846;9.230;2023-04-24T13:13:56;1.20;;;1.10;;
679;SDS011;322;48.846;9.230;2023-04-24T13:16:23;1.63;;;1.30;;
679;SDS011;322;48.846;9.230;2023-04-24T13:18:49;1.63;;;1.20;;
679;SDS011;322;48.846;9.230;2023-04-24T13:21:16;1.70;;;1.30;;
679;SDS011;322;48.846;9.230;2023-04-24T13:23:43;4.00;;;1.97;;
679;SDS011;322;48.846;9.230;2023-04-24T13:26:10;2.47;;;1.67;;
679;SDS011;322;48.846;9.230;2023-04-24T13:28:38;3.03;;;2.00;;
679;SDS011;322;48.846;9.230;2023-04-24T13:31:05;2.03;;;1.83;;
679;SDS011;322;48.846;9.230;2023-04-24T13:33:32;3.10;;;2.30;;
679;SDS011;322;48.846;9.230;2023-04-24T13:35:59;2.63;;;1.50;;
679;SDS011;322;48.846;9.230;2023-04-24T13:38:25;2.10;;;1.70;;
679;SDS011;322;48.846;9.230;2023-04-24T13:40:52;4.10;;;2.17;;
679;SDS011;322;48.846;9.230;2023-04-24T13:43:19;2.30;;;1.83;;
679;SDS011;322;48.846;9.230;2023-04-24T13:45:48;1.70;;;1.60;;
679;SDS011;322;48.846;9.230;2023-04-24T13:48:14;2.03;;;1.80;;
679;SDS011;322;48.846;9.230;2023-04-24T13:50:41;2.10;;;2.00;;
679;SDS011;322;48.846;9.230;2023-04-24T13:53:09;2.37;;;2.10;;
679;SDS011;322;48.846;9.230;2023-04-24T13:55:36;2.17;;;1.97;;
679;SDS011;322;48.846;9.230;2023-04-24T13:58:04;2.20;;;1.50;;
679;SDS011;322;48.846;9.230;2023-04-24T14:00:31;1.57;;;1.47;;
679;SDS011;322;48.846;9.230;2023-04-24T14:02:59;2.23;;;1.20;;
679;SDS011;322;48.846;9.230;2023-04-24T14:05:26;1.80;;;1.40;;
679;SDS011;322;48.846;9.230;2023-04-24T14:07:53;1.50;;;1.40;;
679;SDS011;322;48.846;9.230;2023-04-24T14:10:20;2.60;;;1.63;;
679;SDS011;322;48.846;9.230;2023-04-24T14:12:47;3.00;;;2.17;;
679;SDS011;322;48.846;9.230;2023-04-24T14:15:14;1.67;;;1.50;;
679;SDS011;322;48.846;9.230;2023-04-24T14:17:41;3.00;;;1.80;;
679;SDS011;322;48.846;9.230;2023-04-24T14:20:10;4.40;;;1.77;;
679;SDS011;322;48.846;9.230;2023-04-24T14:22:38;1.70;;;1.37;;
679;SDS011;322;48.846;9.230;2023-04-24T14:25:07;1.50;;;1.40;;
679;SDS011;322;48.846;9.230;2023-04-24T14:27:35;1.60;;;1.50;;
679;SDS011;322;48.846;9.230;2023-04-24T14:30:01;1.80;;;1.50;;
679;SDS011;322;48.846;9.230;2023-04-24T14:32:29;3.40;;;1.47;;
679;SDS011;322;48.846;9.230;2023-04-24T14:34:56;2.20;;;1.97;;
679;SDS011;322;48.846;9.230;2023-04-24T14:37:24;1.60;;;1.50;;
679;SDS011;322;48.846;9.230;2023-04-24T14:39:51;1.73;;;1.40;;
679;SDS011;322;48.846;9.230;2023-04-24T14:42:17;1.80;;;1.70;;
679;SDS011;322;48.846;9.230;2023-04-24T14:44:44;2.33;;;1.63;;
679;SDS011;322;48.846;9.230;2023-04-24T14:47:11;1.73;;;1.50;;
679;SDS011;322;48.846;9.230;2023-04-24T14:49:38;1.87;;;1.73;;
679;SDS011;322;48.846;9.230;2023-04-24T14:52:04;1.60;;;1.50;;
679;SDS011;322;48.846;9.230;2023-04-24T14:54:33;2.23;;;1.63;;
679;SDS011;322;48.846;9.230;2023-04-24T14:56:59;3.20;;;1.50;;
679;SDS011;322;48.846;9.230;2023-04-24T14:59:27;2.90;;;1.87;;
679;SDS011;322;48.846;9.230;2023-04-24T15:01:54;3.57;;;1.60;;
679;SDS011;322;48.846;9.230;2023-04-24T15:04:22;1.40;;;1.20;;
679;SDS011;322;48.846;9.230;2023-04-24T15:06:50;1.97;;;1.50;;
679;SDS011;322;48.846;9.230;2023-04-24T15:09:18;1.30;;;1.20;;
679;SDS011;322;48.846;9.230;2023-04-24T15:11:46;1.70;;;1.60;;
679;SDS011;322;48.846;9.230;2023-04-24T15:14:13;2.20;;;1.40;;
679;SDS011;322;48.846;9.230;2023-04-24T15:16:40;2.07;;;1.50;;
679;SDS011;322;48.846;9.230;2023-04-24T15:19:07;2.00;;;1.80;;
679;SDS011;322;48.846;9.230;2023-04-24T15:21:35;3.37;;;2.20;;
679;SDS011;322;48.846;9.230;2023-04-24T15:24:02;3.60;;;2.10;;
679;SDS011;322;48.846;9.230;2023-04-24T15:26:30;1.67;;;1.30;;
679;SDS011;322;48.846;9.230;2023-04-24T15:28:58;2.30;;;2.10;;
679;SDS011;322;48.846;9.230;2023-04-24T15:31:25;3.10;;;2.00;;
679;SDS011;322;48.846;9.230;2023-04-24T15:33:52;3.60;;;1.80;;
679;SDS011;322;48.846;9.230;2023-04-24T15:36:18;2.60;;;2.00;;
679;SDS011;322;48.846;9.230;2023-04-24T15:38:46;2.17;;;1.73;;
679;SDS011;322;48.846;9.230;2023-04-24T15:41:13;2.10;;;1.90;;
679;SDS011;322;48.846;9.230;2023-04-24T15:43:40;2.00;;;1.80;;
679;SDS011;322;48.846;9.230;2023-04-24T15:46:09;1.57;;;1.40;;
679;SDS011;322;48.846;9.230;2023-04-24T15:48:36;1.87;;;1.40;;
679;SDS011;322;48.846;9.230;2023-04-24T15:51:06;1.73;;;1.40;;
679;SDS011;322;48.846;9.230;2023-04-24T15:53:33;1.77;;;1.57;;
679;SDS011;322;48.846;9.230;2023-04-24T15:56:00;1.50;;;1.40;;
679;SDS011;322;48.846;9.230;2023-04-24T15:58:27;2.07;;;1.67;;